Disclaimer

Please do not use the information listed here in-flight or in-navigation, as they are not provided to us by the airports but are provided by volunteers, so they might be outdated.

Search


Regions


Airport information page

Radio informations:
Tower (TWR) - 118.15 MHz
Automatic Terminal Information Service (ATIS) - 121.125 MHz
RADAR - 120.55 MHz
Approach (APP) - 120.55 MHz

Airport informations:
Latitude: 55° 30' 34.00" N
Longitude: 004° 35' 12.00" W
Elevation: 65 feet - 20 meters
Operating hours: Remarks
Operating agency: Civil government, landing fees and diplomatic clearance may be required
Timezone: UTC 0(+1DT) - Last Sunday in March to last Sunday in October
Fuel: JP-4, Wide cut turbine fuel MIL Spec T-5624

Jet A1, without icing nhibitor.

100/130 MIL Spec, low lead, aviation gasoline (BLUE)

Runway information:
03/21 - 6000 x 148 feet< - >1829 x 45 meters
13/31 - 9800 x 150 feet< - >2987 x 46 meters

Recent METARs:
EGPK 211820Z 10011KT 9999 FEW028 04/01 Q1017
EGPK 211850Z 11013KT 9999 FEW030 05/01 Q1017
EGPK 211920Z 11011KT 9999 FEW032 05/01 Q1017

Airport on the map: